M I D A S
Marine Information and Data Acquisition System
Tripno 1476 of the Zeeleeuw from 2008-02-19 07:49:17 to 2008-02-19 15:36:32
Back to CruiseResearch ActivitiesStationsMapUnderway DataData graphs

EquipmentUnitsComment
TimeDGPSUTC
LatitudeDGPSDM.mWGS84
LongitudeDGPSDM.mWGS84
HeadingGyrodeg 
SOGDGPSknotsSpeed over ground
COGDGPSdegCourse over ground
DepthEcho soundermeters200 kHz
Missing or incorrect values are displayed as -999
Navigation data collected by the RV Zeeleeuw from 2008-02-19 07:51:23 to 2008-02-19 15:38:05
                                                                                    Next 1000 lines
Time Latitude Longitude Heading SOG COG Depth
2008-02-19 07:51:33 51°13.663 2°55.952 104.8 0.6 285 6.5
2008-02-19 07:51:38 51°13.664 2°55.95 104.3 0.9 295 6.5
2008-02-19 07:51:43 51°13.664 2°55.948 103.8 1.1 286 6.5
2008-02-19 07:51:48 51°13.665 2°55.944 103.7 1.5 288 6.5
2008-02-19 07:51:53 51°13.665 2°55.94 103.7 1.9 287 6.5
2008-02-19 07:51:58 51°13.667 2°55.935 103.7 2.3 287 -999
2008-02-19 07:52:04 51°13.668 2°55.928 103.7 2.7 285 -999
2008-02-19 07:52:09 51°13.669 2°55.921 103.7 3.1 285 -999
2008-02-19 07:52:14 51°13.67 2°55.914 103.7 3.3 285 -999
2008-02-19 07:52:19 51°13.671 2°55.906 103.7 3.6 284 -999
2008-02-19 07:52:24 51°13.672 2°55.897 103.7 3.9 283 -999
2008-02-19 07:52:29 51°13.674 2°55.889 103.8 4.1 283 -999
2008-02-19 07:52:34 51°13.675 2°55.879 103.6 4.2 283 -999
2008-02-19 07:52:39 51°13.677 2°55.87 103.1 4.2 284 -999
2008-02-19 07:52:44 51°13.678 2°55.861 102.8 4.2 283 -999
2008-02-19 07:52:49 51°13.68 2°55.852 102.4 4.1 283 -999
2008-02-19 07:52:54 51°13.681 2°55.844 101.9 4.1 282 -999
2008-02-19 07:52:59 51°13.682 2°55.835 101.4 4.1 283 -999
2008-02-19 07:53:04 51°13.683 2°55.826 100.8 4 283 -999
2008-02-19 07:53:09 51°13.684 2°55.817 100.4 4 282 -999
2008-02-19 07:53:14 51°13.686 2°55.809 99.8 4 282 -999
2008-02-19 07:53:19 51°13.687 2°55.8 99.1 4 281 -999
2008-02-19 07:53:24 51°13.688 2°55.792 98.1 3.9 282 -999
2008-02-19 07:53:29 51°13.689 2°55.784 96.9 3.7 280 -999
2008-02-19 07:53:34 51°13.689 2°55.776 95.6 3.6 279 -999
2008-02-19 07:53:39 51°13.69 2°55.768 93.6 3.6 279 -999
2008-02-19 07:53:44 51°13.691 2°55.761 92.2 3.4 277 -999
2008-02-19 07:53:49 51°13.691 2°55.754 90.5 3.2 276 -999
2008-02-19 07:53:54 51°13.691 2°55.747 89.4 3.1 275 -999
2008-02-19 07:53:58 51°13.692 2°55.742 88.3 2.9 275 -999
2008-02-19 07:54:04 51°13.692 2°55.735 87 2.6 274 -999
2008-02-19 07:54:09 51°13.692 2°55.73 85.5 2.2 272 -999
2008-02-19 07:54:14 51°13.692 2°55.726 83.6 1.9 272 11.7
2008-02-19 07:54:18 51°13.692 2°55.723 81.4 1.6 272 11.8
2008-02-19 07:54:23 51°13.692 2°55.72 78.7 1.3 277 11.8
2008-02-19 07:54:28 51°13.692 2°55.718 76.1 1.1 280 11.7
2008-02-19 07:54:33 51°13.693 2°55.716 73.2 0.8 284 11.8
2008-02-19 07:54:38 51°13.693 2°55.715 69.9 0.6 293 11.9
2008-02-19 07:54:43 51°13.693 2°55.715 66.5 0.5 310 12.2
2008-02-19 07:54:48 51°13.694 2°55.714 62.9 0.4 333 12.2
2008-02-19 07:54:53 51°13.695 2°55.714 59.2 0.5 2 12.4
2008-02-19 07:54:58 51°13.695 2°55.715 55.2 0.6 8 12.7
2008-02-19 07:55:03 51°13.696 2°55.715 51.1 0.8 18 -999
2008-02-19 07:55:09 51°13.698 2°55.716 46.9 0.9 19 -999
2008-02-19 07:55:14 51°13.7 2°55.717 42.7 1.1 20 13.6
2008-02-19 07:55:18 51°13.701 2°55.718 38.2 1.5 19 13.6
2008-02-19 07:55:23 51°13.704 2°55.719 33.5 2 19 13.7
2008-02-19 07:55:28 51°13.708 2°55.72 27.6 2.7 11 13.2
2008-02-19 07:55:33 51°13.713 2°55.721 19.8 3.2 4 11.9
2008-02-19 07:55:38 51°13.718 2°55.721 11.1 3.7 358 12
2008-02-19 07:55:43 51°13.723 2°55.719 2.1 4.1 350 11.4
2008-02-19 07:55:48 51°13.729 2°55.716 353.4 4.7 343 10.9
2008-02-19 07:55:53 51°13.736 2°55.712 345.9 5.2 340 10.7
2008-02-19 07:55:58 51°13.743 2°55.706 340.8 5.7 336 10.8
2008-02-19 07:56:02 51°13.75 2°55.702 338 6.1 336 11
2008-02-19 07:56:07 51°13.759 2°55.695 336.6 6.4 335 10.9
2008-02-19 07:56:12 51°13.767 2°55.689 335.7 6.7 334 10.9
2008-02-19 07:56:17 51°13.776 2°55.682 334.6 7.1 333 10.7
2008-02-19 07:56:22 51°13.785 2°55.674 333.5 7.4 332 10.2
2008-02-19 07:56:27 51°13.795 2°55.666 333 7.5 332 10.6
2008-02-19 07:56:32 51°13.805 2°55.658 333 7.6 333 10.5
2008-02-19 07:56:37 51°13.814 2°55.65 333.2 7.8 332 10.4
2008-02-19 07:56:42 51°13.824 2°55.642 333.1 7.9 333 10.3
2008-02-19 07:56:47 51°13.834 2°55.634 333.5 8.1 333 10.5
2008-02-19 07:56:52 51°13.844 2°55.626 334 8.2 334 10.3
2008-02-19 07:56:57 51°13.855 2°55.618 334.5 8.3 334 10.1
2008-02-19 07:57:02 51°13.866 2°55.61 334.5 8.3 334 10.8
2008-02-19 07:57:07 51°13.875 2°55.603 334.6 8.1 335 10.8
2008-02-19 07:57:11 51°13.883 2°55.598 335.2 7.8 336 10.8
2008-02-19 07:57:17 51°13.894 2°55.589 335.8 7.6 336 10.8
2008-02-19 07:57:21 51°13.901 2°55.584 336 7.4 336 11.1
2008-02-19 07:57:26 51°13.91 2°55.578 336 7.2 336 11.2
2008-02-19 07:57:31 51°13.918 2°55.571 336 7 335 11.2
2008-02-19 07:57:36 51°13.926 2°55.565 335.6 6.7 335 11.2
2008-02-19 07:57:41 51°13.935 2°55.558 335 6.6 335 11.3
2008-02-19 07:57:46 51°13.944 2°55.553 334.9 6.3 335 11.3
2008-02-19 07:57:51 51°13.952 2°55.547 335.3 6.2 336 11.3
2008-02-19 07:57:56 51°13.959 2°55.542 336.3 6 336 11.2
2008-02-19 07:58:01 51°13.967 2°55.537 336.7 5.8 336 11.4
2008-02-19 07:58:06 51°13.974 2°55.532 336.7 5.7 336 11.5
2008-02-19 07:58:10 51°13.979 2°55.528 336.5 5.6 336 11.3
2008-02-19 07:58:15 51°13.986 2°55.523 336.4 5.5 336 11.4
2008-02-19 07:58:20 51°13.992 2°55.518 336.2 5.4 335 11.3
2008-02-19 07:58:25 51°13.999 2°55.513 336.1 5.3 336 11.3
2008-02-19 07:58:30 51°14.005 2°55.508 336 5.3 335 11.2
2008-02-19 07:58:35 51°14.012 2°55.503 336 5.2 336 11.4
2008-02-19 07:58:40 51°14.018 2°55.499 336.1 5.2 336 11.4
2008-02-19 07:58:45 51°14.024 2°55.494 336 5.1 335 11.2
2008-02-19 07:58:50 51°14.031 2°55.49 336 5 336 11.6
2008-02-19 07:58:55 51°14.038 2°55.485 335.5 5 335 11.1
2008-02-19 07:59:00 51°14.044 2°55.48 335.2 5 336 11.2
2008-02-19 07:59:05 51°14.05 2°55.475 334.6 5 335 11.4
2008-02-19 07:59:10 51°14.056 2°55.47 334 5.1 335 11.4
2008-02-19 07:59:15 51°14.063 2°55.466 333.6 5 334 -999
2008-02-19 07:59:21 51°14.07 2°55.46 333.5 4.9 333 11.3
2008-02-19 07:59:26 51°14.076 2°55.455 333.5 5 333 11.4
2008-02-19 07:59:31 51°14.082 2°55.449 333.5 5.1 332 11.4
2008-02-19 07:59:36 51°14.088 2°55.444 333.5 5.2 333 11.4
2008-02-19 07:59:41 51°14.095 2°55.439 333 5.3 332 11.5
2008-02-19 07:59:46 51°14.102 2°55.433 332.4 5.5 332 11.5
2008-02-19 07:59:51 51°14.109 2°55.426 332.2 5.8 331 11.2
2008-02-19 07:59:56 51°14.117 2°55.419 332.3 6.2 332 11.4
2008-02-19 08:00:01 51°14.125 2°55.412 332.3 6.6 331 11.1
2008-02-19 08:00:06 51°14.134 2°55.405 332.3 7 331 11.3
2008-02-19 08:00:10 51°14.141 2°55.398 332 7.4 330 11.4
2008-02-19 08:00:15 51°14.151 2°55.39 331.2 7.7 329 11.4
2008-02-19 08:00:20 51°14.16 2°55.38 329.9 8 328 11.4
2008-02-19 08:00:26 51°14.171 2°55.368 328.5 8.3 326 11.4
2008-02-19 08:00:30 51°14.179 2°55.359 327 8.5 325 11.2
2008-02-19 08:00:35 51°14.189 2°55.347 324.5 8.8 323 11.5
2008-02-19 08:00:40 51°14.199 2°55.335 323 8.9 322 11.2
2008-02-19 08:00:45 51°14.209 2°55.322 322.9 9.2 322 11.4
2008-02-19 08:00:50 51°14.219 2°55.309 322 9.3 320 11.5
2008-02-19 08:00:55 51°14.229 2°55.295 320.8 9.4 319 11.5
2008-02-19 08:01:00 51°14.239 2°55.281 319.2 9.6 318 11.6
2008-02-19 08:01:05 51°14.249 2°55.266 318.1 9.8 317 11.3
2008-02-19 08:01:10 51°14.258 2°55.251 316.9 9.8 316 11.3
2008-02-19 08:01:15 51°14.268 2°55.235 315.6 9.9 314 11.2
2008-02-19 08:01:20 51°14.277 2°55.218 313.5 10 312 10.7
2008-02-19 08:01:25 51°14.286 2°55.201 312 10.2 310 10.4
2008-02-19 08:01:30 51°14.295 2°55.183 309.6 10.3 308 9.9
2008-02-19 08:01:35 51°14.304 2°55.164 307.8 10.4 307 10.1
2008-02-19 08:01:40 51°14.312 2°55.146 307.3 10.4 307 10.2
2008-02-19 08:01:45 51°14.321 2°55.127 307.1 10.5 307 10.7
2008-02-19 08:01:50 51°14.33 2°55.108 305.9 10.6 306 10.8
2008-02-19 08:01:55 51°14.338 2°55.089 305.5 10.8 305 10.5
2008-02-19 08:02:00 51°14.347 2°55.069 305.1 10.9 305 11
2008-02-19 08:02:05 51°14.355 2°55.049 304.5 10.9 304 10.8
2008-02-19 08:02:10 51°14.363 2°55.028 303.3 11 302 10.6
2008-02-19 08:02:15 51°14.371 2°55.007 302.4 11 301 10.6
2008-02-19 08:02:20 51°14.379 2°54.986 301.3 11.1 299 10.3
2008-02-19 08:02:25 51°14.386 2°54.964 299.8 11.3 298 10.3
2008-02-19 08:02:30 51°14.393 2°54.942 299.4 11.4 298 10.4
2008-02-19 08:02:35 51°14.401 2°54.919 299.3 11.4 298 10.5
2008-02-19 08:02:40 51°14.408 2°54.897 298.9 11.5 297 10.5
2008-02-19 08:02:45 51°14.415 2°54.873 298.1 11.6 296 10.6
2008-02-19 08:02:50 51°14.423 2°54.851 298.4 11.6 298 10.7
2008-02-19 08:02:55 51°14.43 2°54.828 298.7 11.7 297 10.7
2008-02-19 08:03:00 51°14.438 2°54.805 299.1 11.7 298 10.6
2008-02-19 08:03:04 51°14.444 2°54.787 299.7 11.8 299 10.6
2008-02-19 08:03:10 51°14.454 2°54.76 300.9 11.8 301 10.6
2008-02-19 08:03:15 51°14.463 2°54.738 302.6 11.9 302 10.7
2008-02-19 08:03:20 51°14.473 2°54.716 304.4 12 304 10.6
2008-02-19 08:03:25 51°14.482 2°54.694 306.3 12.1 305 10.6
2008-02-19 08:03:30 51°14.492 2°54.672 307.7 12.1 306 10.6
2008-02-19 08:03:35 51°14.502 2°54.65 308.4 12.2 306 10.4
2008-02-19 08:03:40 51°14.512 2°54.628 308.1 12.3 306 10.6
2008-02-19 08:03:45 51°14.522 2°54.606 307.8 12.4 305 10.5
2008-02-19 08:03:50 51°14.532 2°54.584 307.6 12.4 305 10.5
2008-02-19 08:03:55 51°14.542 2°54.561 307.3 12.4 305 10.6
2008-02-19 08:04:00 51°14.552 2°54.539 307.3 12.4 305 10.5
2008-02-19 08:04:05 51°14.562 2°54.517 307 12.4 305 10.4
2008-02-19 08:04:10 51°14.571 2°54.494 307.4 12.5 306 10.5
2008-02-19 08:04:15 51°14.581 2°54.472 307.6 12.5 305 10.5
2008-02-19 08:04:20 51°14.591 2°54.449 307.7 12.3 304 10.5
2008-02-19 08:04:25 51°14.6 2°54.426 306.2 12.3 301 10.4
2008-02-19 08:04:30 51°14.607 2°54.401 300.6 12.4 295 10.5
2008-02-19 08:04:35 51°14.614 2°54.376 296.5 12.4 294 10.3
2008-02-19 08:04:40 51°14.621 2°54.351 296 12.4 295 10.3
2008-02-19 08:04:45 51°14.626 2°54.325 294.2 12.4 290 10.5
2008-02-19 08:04:50 51°14.633 2°54.299 293.2 12.4 291 10.6
2008-02-19 08:04:55 51°14.637 2°54.272 289.7 12.5 284 10.7
2008-02-19 08:05:00 51°14.641 2°54.246 286.5 12.5 285 10.7
2008-02-19 08:05:05 51°14.646 2°54.219 286.5 12.6 285 10.8
2008-02-19 08:05:10 51°14.649 2°54.192 285.2 12.6 283 11
2008-02-19 08:05:15 51°14.654 2°54.165 285.4 12.6 286 10.9
2008-02-19 08:05:20 51°14.658 2°54.138 286.2 12.7 284 10.9
2008-02-19 08:05:25 51°14.664 2°54.112 287.8 12.5 289 10.8
2008-02-19 08:05:30 51°14.67 2°54.085 289.5 12.6 288 10.9
2008-02-19 08:05:35 51°14.676 2°54.06 290.4 12.6 290 11
2008-02-19 08:05:40 51°14.682 2°54.036 291.8 11.8 290 10.9
2008-02-19 08:05:45 51°14.687 2°54.013 292.3 10.9 291 10.9
2008-02-19 08:05:50 51°14.692 2°53.993 293.3 10.1 292 10.8
2008-02-19 08:05:55 51°14.697 2°53.974 294.8 9.3 293 10.9
2008-02-19 08:06:00 51°14.701 2°53.957 296.4 8.6 294 10.9
2008-02-19 08:06:05 51°14.707 2°53.942 298.3 7.9 296 11
2008-02-19 08:06:10 51°14.712 2°53.927 300.5 7.5 298 11
2008-02-19 08:06:15 51°14.717 2°53.914 302.8 7 300 10.9
2008-02-19 08:06:20 51°14.721 2°53.903 306.2 6.4 303 10.8
2008-02-19 08:06:25 51°14.726 2°53.893 309.8 5.9 307 10.9
2008-02-19 08:06:30 51°14.731 2°53.883 313.4 5.4 309 10.8
2008-02-19 08:06:35 51°14.736 2°53.875 316.4 5.1 311 10.8
2008-02-19 08:06:40 51°14.74 2°53.867 319.3 4.8 313 10.7
2008-02-19 08:06:45 51°14.744 2°53.86 322.2 4.4 315 10.7
2008-02-19 08:06:50 51°14.748 2°53.854 324.7 4.2 317 10.7
2008-02-19 08:06:55 51°14.752 2°53.848 327.3 3.9 318 10.7
2008-02-19 08:07:00 51°14.756 2°53.843 329.8 3.7 320 10.8
2008-02-19 08:07:05 51°14.76 2°53.838 332 3.5 322 10.7
2008-02-19 08:07:10 51°14.764 2°53.834 333.9 3.4 323 10.7
2008-02-19 08:07:15 51°14.768 2°53.829 335.3 3.3 323 10.7
2008-02-19 08:07:20 51°14.771 2°53.826 336.6 3.1 325 10.5
2008-02-19 08:07:25 51°14.774 2°53.822 337.6 3 325 10.3
2008-02-19 08:07:30 51°14.778 2°53.818 338.6 2.8 326 10.2
2008-02-19 08:07:35 51°14.781 2°53.815 339.4 2.7 324 10.2
2008-02-19 08:07:40 51°14.784 2°53.811 340.3 2.6 325 10.2
2008-02-19 08:07:45 51°14.787 2°53.808 341 2.5 325 10.1
2008-02-19 08:07:50 51°14.789 2°53.805 341.8 2.5 326 10.1
2008-02-19 08:07:55 51°14.792 2°53.802 342.7 2.4 328 10.1
2008-02-19 08:08:00 51°14.795 2°53.799 343.5 2.3 326 10.2
2008-02-19 08:08:05 51°14.797 2°53.797 344.3 2.2 327 10.1
2008-02-19 08:08:10 51°14.8 2°53.794 345.1 2.1 327 10.1
2008-02-19 08:08:15 51°14.802 2°53.792 345.7 2 327 10.1
2008-02-19 08:08:20 51°14.804 2°53.789 346.4 2 325 10.1
2008-02-19 08:08:25 51°14.806 2°53.787 347 1.9 326 10.1
2008-02-19 08:08:30 51°14.808 2°53.785 347.6 1.9 325 10.1
2008-02-19 08:08:35 51°14.81 2°53.782 348.1 1.8 327 10.1
2008-02-19 08:08:40 51°14.812 2°53.78 348.6 1.8 325 10.1
2008-02-19 08:08:45 51°14.814 2°53.778 349 1.7 327 10
2008-02-19 08:08:50 51°14.816 2°53.776 349.5 1.7 326 10.1
2008-02-19 08:08:55 51°14.818 2°53.774 349.9 1.6 325 10
2008-02-19 08:09:00 51°14.82 2°53.772 350.3 1.5 322 10
2008-02-19 08:09:05 51°14.821 2°53.77 350.7 1.5 327 10.1
2008-02-19 08:09:10 51°14.823 2°53.768 351.2 1.5 322 10.1
2008-02-19 08:09:15 51°14.824 2°53.766 351.5 1.4 323 10
2008-02-19 08:09:20 51°14.826 2°53.764 351.8 1.4 322 10
2008-02-19 08:09:25 51°14.827 2°53.763 352.1 1.3 325 10.1
2008-02-19 08:09:30 51°14.829 2°53.761 352.4 1.2 319 9.8
2008-02-19 08:09:35 51°14.829 2°53.76 352.6 1 308 9.8
2008-02-19 08:09:40 51°14.83 2°53.758 352.8 0.8 290 9.7
2008-02-19 08:09:45 51°14.829 2°53.757 353.1 0.6 262 9.8
2008-02-19 08:09:50 51°14.829 2°53.755 353.2 1 231 9.8
2008-02-19 08:09:55 51°14.827 2°53.754 353 1.2 212 9.8
2008-02-19 08:10:00 51°14.825 2°53.752 353 1.5 203 10
2008-02-19 08:10:05 51°14.823 2°53.751 352.6 1.9 197 10
2008-02-19 08:10:10 51°14.82 2°53.75 351.8 2.1 196 4.8
2008-02-19 08:10:15 51°14.816 2°53.749 350.9 2.4 189 -999
2008-02-19 08:10:21 51°14.812 2°53.748 349.7 2.7 187 -999
2008-02-19 08:10:27 51°14.807 2°53.747 348.2 2.9 185 -999
2008-02-19 08:10:33 51°14.802 2°53.747 346.7 3.1 181 -999
2008-02-19 08:10:38 51°14.797 2°53.747 345.3 3.3 181 -999
2008-02-19 08:10:44 51°14.791 2°53.748 344.2 3.4 176 -999
2008-02-19 08:10:49 51°14.786 2°53.748 343 3.6 178 -999
2008-02-19 08:10:54 51°14.781 2°53.749 341.9 3.6 174 -999
2008-02-19 08:10:59 51°14.776 2°53.75 341.3 3.7 176 -999
2008-02-19 08:11:04 51°14.771 2°53.751 340.6 3.8 173 -999
2008-02-19 08:11:09 51°14.766 2°53.751 339.7 3.7 173 -999
2008-02-19 08:11:14 51°14.761 2°53.753 338.6 3.4 172 -999
2008-02-19 08:11:18 51°14.758 2°53.753 336.7 3 177 -999
2008-02-19 08:11:24 51°14.754 2°53.753 336.1 2.4 176 -999
2008-02-19 08:11:29 51°14.752 2°53.752 335.4 1.9 187 10.5
2008-02-19 08:11:33 51°14.75 2°53.752 335.4 1.3 195 10.5
2008-02-19 08:11:38 51°14.749 2°53.75 335.6 1 220 10.4
2008-02-19 08:11:43 51°14.749 2°53.749 336.3 0.8 243 10.5
2008-02-19 08:11:48 51°14.749 2°53.747 338.3 0.8 284 10.5
2008-02-19 08:11:53 51°14.751 2°53.745 341 1.2 315 10.5
2008-02-19 08:11:58 51°14.753 2°53.743 345.1 1.7 328 10.5
2008-02-19 08:12:03 51°14.756 2°53.742 350.7 2 343 10.5
2008-02-19 08:12:08 51°14.759 2°53.742 357 2.3 351 10.5
2008-02-19 08:12:13 51°14.763 2°53.742 3.5 2.5 3 10.5
2008-02-19 08:12:18 51°14.766 2°53.743 10.1 2.6 9 10.5
2008-02-19 08:12:23 51°14.77 2°53.745 16 3 17 10.5
2008-02-19 08:12:27 51°14.774 2°53.748 22.2 3.3 27 10.5
2008-02-19 08:12:32 51°14.778 2°53.752 29.3 3.5 36 10.5
2008-02-19 08:12:37 51°14.781 2°53.758 36.9 3.6 45 10.4
2008-02-19 08:12:42 51°14.784 2°53.764 44.6 3.5 49 10.4
2008-02-19 08:12:47 51°14.787 2°53.77 50.7 3.5 52 10.3
2008-02-19 08:12:52 51°14.79 2°53.776 53.4 3.3 56 10.3
2008-02-19 08:12:57 51°14.792 2°53.782 55.7 3.1 59 10.2
2008-02-19 08:13:02 51°14.794 2°53.788 59.2 3 63 10.2
2008-02-19 08:13:07 51°14.795 2°53.794 62.8 2.9 69 10.1
2008-02-19 08:13:12 51°14.796 2°53.799 65.8 2.7 70 10.2
2008-02-19 08:13:16 51°14.797 2°53.804 67.8 2.6 72 10.3
2008-02-19 08:13:22 51°14.798 2°53.81 69 2.5 73 10.2
2008-02-19 08:13:26 51°14.799 2°53.814 70.3 2.5 72 10.2
2008-02-19 08:13:31 51°14.799 2°53.819 70.8 2.4 74 10.1
2008-02-19 08:13:36 51°14.8 2°53.824 71.6 2.3 77 10.1
2008-02-19 08:13:41 51°14.801 2°53.829 72 2.2 79 10.1
2008-02-19 08:13:46 51°14.801 2°53.833 72.5 2.1 78 10.1
2008-02-19 08:13:51 51°14.802 2°53.838 72.6 2 78 10.1
2008-02-19 08:13:56 51°14.802 2°53.842 72.7 2 80 10.1
2008-02-19 08:14:01 51°14.803 2°53.846 72.5 1.9 78 10.1
2008-02-19 08:14:06 51°14.803 2°53.85 71.8 1.8 76 10.1
2008-02-19 08:14:10 51°14.803 2°53.853 71 1.7 81 10.1
2008-02-19 08:14:15 51°14.804 2°53.856 70.2 1.6 79 10.1
2008-02-19 08:14:21 51°14.804 2°53.86 69.4 1.5 77 10.1
2008-02-19 08:14:26 51°14.805 2°53.862 68.7 1.3 73 10.2
2008-02-19 08:14:30 51°14.805 2°53.864 67.8 1.2 78 10.1
2008-02-19 08:14:35 51°14.806 2°53.866 66.3 1 69 10.1
2008-02-19 08:14:40 51°14.806 2°53.868 64.7 0.6 68 10.1
2008-02-19 08:14:45 51°14.806 2°53.868 62.6 0.3 95 10
2008-02-19 08:14:50 51°14.806 2°53.869 60.7 0.2 68 10.1
2008-02-19 08:14:55 51°14.806 2°53.869 59 0.2 120 10.1
2008-02-19 08:15:00 51°14.806 2°53.868 57.2 0.2 313 10.1
2008-02-19 08:15:05 51°14.806 2°53.869 55.7 0.1 243 10.1
2008-02-19 08:15:10 51°14.806 2°53.868 54 0.1 279 10.2
2008-02-19 08:15:14 51°14.806 2°53.868 52.2 0.1 285 10.1
2008-02-19 08:15:20 51°14.806 2°53.868 50.4 0.3 302 10
2008-02-19 08:15:25 51°14.806 2°53.868 48.5 0.1 226 10.1
2008-02-19 08:15:30 51°14.806 2°53.867 46.1 0.3 307 10.1
2008-02-19 08:15:35 51°14.807 2°53.866 43.9 0.3 310 10
2008-02-19 08:15:40 51°14.807 2°53.866 42.1 0.3 307 10.1
2008-02-19 08:15:45 51°14.807 2°53.865 39.7 0.2 315 10.1
2008-02-19 08:15:50 51°14.808 2°53.865 37.5 0.4 309 10.1
2008-02-19 08:15:55 51°14.808 2°53.864 35.3 0.3 322 10.1
2008-02-19 08:16:00 51°14.808 2°53.864 33.2 0.4 324 10.2
2008-02-19 08:16:05 51°14.809 2°53.863 31.3 0.4 323 10.2
2008-02-19 08:16:10 51°14.809 2°53.863 29.8 0.5 317 10.1
2008-02-19 08:16:15 51°14.81 2°53.862 28.2 0.5 321 10.1
2008-02-19 08:16:20 51°14.81 2°53.861 27.5 0.4 328 10.1
2008-02-19 08:16:25 51°14.811 2°53.861 26.8 0.5 327 10.1
2008-02-19 08:16:30 51°14.812 2°53.86 26 0.6 321 10.1
2008-02-19 08:16:35 51°14.812 2°53.859 25.6 0.5 327 10.1
2008-02-19 08:16:40 51°14.813 2°53.859 25.3 0.5 332 10.1
2008-02-19 08:16:45 51°14.813 2°53.858 25.3 0.6 326 10.1
2008-02-19 08:16:50 51°14.814 2°53.858 25.5 0.6 336 10.1
2008-02-19 08:16:55 51°14.815 2°53.857 25.6 0.6 327 10.1
2008-02-19 08:17:00 51°14.815 2°53.856 26 0.5 333 10.1
2008-02-19 08:17:05 51°14.816 2°53.856 26.9 0.5 322 10.1
2008-02-19 08:17:10 51°14.817 2°53.855 27.2 0.5 324 10.1
2008-02-19 08:17:15 51°14.817 2°53.854 28 0.5 323 10.1
2008-02-19 08:17:20 51°14.818 2°53.853 28.3 0.5 322 10.1
2008-02-19 08:17:25 51°14.818 2°53.853 29.2 0.4 334 10.2
2008-02-19 08:17:30 51°14.819 2°53.852 29.9 0.5 320 10.2
2008-02-19 08:17:35 51°14.819 2°53.852 30.3 0.5 317 10.1
2008-02-19 08:17:40 51°14.82 2°53.851 31.1 0.4 315 10.1
2008-02-19 08:17:45 51°14.82 2°53.851 31.9 0.5 315 10.1
2008-02-19 08:17:50 51°14.82 2°53.85 32.6 0.4 322 10.1
2008-02-19 08:17:55 51°14.821 2°53.85 33.4 0.4 318 10.1
2008-02-19 08:18:00 51°14.821 2°53.849 33.6 0.5 310 10.1
2008-02-19 08:18:05 51°14.822 2°53.848 34.1 0.3 315 10.2
2008-02-19 08:18:10 51°14.822 2°53.847 34.8 0.5 315 10.1
2008-02-19 08:18:15 51°14.822 2°53.847 35.3 0.3 310 10.2
2008-02-19 08:18:20 51°14.823 2°53.846 35.7 0.4 312 10.1
2008-02-19 08:18:25 51°14.823 2°53.846 36.2 0.3 310 10.2
2008-02-19 08:18:30 51°14.823 2°53.845 36.6 0.4 306 10.2
2008-02-19 08:18:35 51°14.824 2°53.844 36.9 0.3 304 10.2
2008-02-19 08:18:40 51°14.824 2°53.844 37.1 0.4 301 10.1
2008-02-19 08:18:45 51°14.824 2°53.843 37.4 0.4 299 10.1
2008-02-19 08:18:50 51°14.825 2°53.842 37.9 0.3 308 10.1
2008-02-19 08:18:55 51°14.825 2°53.842 38.1 0.4 303 10.1
2008-02-19 08:19:00 51°14.825 2°53.841 38.3 0.3 290 10.1
2008-02-19 08:19:05 51°14.825 2°53.84 38.6 0.4 298 10.1
2008-02-19 08:19:10 51°14.826 2°53.84 38.9 0.3 298 10.2
2008-02-19 08:19:15 51°14.826 2°53.839 39.1 0.3 296 10.1
2008-02-19 08:19:20 51°14.826 2°53.838 39.2 0.4 299 10.1
2008-02-19 08:19:25 51°14.826 2°53.838 39.7 0.3 287 10.1
2008-02-19 08:19:30 51°14.826 2°53.837 39.9 0.4 299 10.2
2008-02-19 08:19:35 51°14.827 2°53.837 40.3 0.3 296 10.2
2008-02-19 08:19:40 51°14.827 2°53.836 40.3 0.4 296 10.2
2008-02-19 08:19:45 51°14.827 2°53.835 40.6 0.2 287 10.2
2008-02-19 08:19:50 51°14.827 2°53.834 40.5 0.5 294 10.1
2008-02-19 08:19:55 51°14.827 2°53.833 40.8 0.3 290 10.2
2008-02-19 08:20:00 51°14.827 2°53.833 41 0.3 298 10.2
2008-02-19 08:20:05 51°14.827 2°53.832 41.2 0.3 296 10.1
2008-02-19 08:20:10 51°14.828 2°53.831 41.6 0.4 306 10.1
2008-02-19 08:20:15 51°14.828 2°53.831 42.4 0.3 327 10.2
2008-02-19 08:20:20 51°14.828 2°53.831 43.2 0.2 323 10.2
2008-02-19 08:20:25 51°14.828 2°53.83 43.7 0.2 309 10.2
2008-02-19 08:20:30 51°14.829 2°53.83 44.6 0.3 318 10.2
2008-02-19 08:20:35 51°14.829 2°53.829 45.6 0.1 314 10.2
2008-02-19 08:20:40 51°14.829 2°53.829 46.6 0.2 308 10.2
2008-02-19 08:20:45 51°14.829 2°53.829 47.3 0.3 320 10.2
2008-02-19 08:20:50 51°14.829 2°53.829 48.2 0.1 318 10.2
2008-02-19 08:20:55 51°14.83 2°53.828 49.1 0.2 327 10.2
2008-02-19 08:21:00 51°14.83 2°53.828 49.9 0.2 330 10.2
2008-02-19 08:21:05 51°14.83 2°53.828 50.7 0.3 333 10.2
2008-02-19 08:21:10 51°14.83 2°53.828 51.4 0.1 347 10.3
2008-02-19 08:21:15 51°14.83 2°53.828 52.1 0.2 326 10.2
2008-02-19 08:21:20 51°14.831 2°53.827 52.9 0.2 326 10.2
2008-02-19 08:21:25 51°14.831 2°53.827 53.7 0.1 344 10.3
2008-02-19 08:21:30 51°14.831 2°53.827 54.6 0.2 329 10.2
2008-02-19 08:21:35 51°14.831 2°53.827 55.6 0.1 -999 10.2
2008-02-19 08:21:40 51°14.832 2°53.827 56.5 0.1 3 10.2
2008-02-19 08:21:45 51°14.832 2°53.827 57.5 -999 46 10.3
2008-02-19 08:21:50 51°14.832 2°53.827 58.5 0.2 352 10.2
2008-02-19 08:21:55 51°14.832 2°53.827 59.3 0.1 5 10.2
2008-02-19 08:22:00 51°14.832 2°53.827 60.1 0.1 348 10.2
2008-02-19 08:22:05 51°14.832 2°53.827 61.1 0.1 83 10.3
2008-02-19 08:22:10 51°14.832 2°53.828 62 0.1 65 10.3
2008-02-19 08:22:15 51°14.833 2°53.828 62.8 0.1 44 10.2
2008-02-19 08:22:20 51°14.833 2°53.828 64 0.1 55 10.2
2008-02-19 08:22:25 51°14.833 2°53.828 65 0.2 101 10.2
2008-02-19 08:22:30 51°14.833 2°53.828 65.9 0.1 52 10.3
2008-02-19 08:22:35 51°14.833 2°53.829 66.9 0.2 127 10.3
2008-02-19 08:22:40 51°14.833 2°53.829 67.9 0.1 56 10.2
2008-02-19 08:22:45 51°14.833 2°53.829 69.1 0.2 113 10.2
2008-02-19 08:22:50 51°14.833 2°53.829 70.3 0.1 67 10.2
2008-02-19 08:22:55 51°14.833 2°53.83 71.3 0.1 77 10.2
2008-02-19 08:23:00 51°14.833 2°53.83 72.1 0.2 97 10.3
2008-02-19 08:23:05 51°14.833 2°53.831 73 0.2 103 10.3
2008-02-19 08:23:10 51°14.833 2°53.831 73.3 0.2 123 10.3
2008-02-19 08:23:15 51°14.833 2°53.832 73.9 0.2 100 10.2
2008-02-19 08:23:20 51°14.833 2°53.832 74.2 0.2 102 10.2
2008-02-19 08:23:25 51°14.833 2°53.832 74.6 0.2 102 10.2
2008-02-19 08:23:30 51°14.833 2°53.833 74.8 0.3 83 10.2
2008-02-19 08:23:35 51°14.833 2°53.834 75.1 0.2 82 10.2
2008-02-19 08:23:40 51°14.833 2°53.834 75.4 0.2 98 10.2
2008-02-19 08:23:45 51°14.833 2°53.835 75.7 0.3 119 10.2
2008-02-19 08:23:50 51°14.833 2°53.835 76 0.3 88 10.2
2008-02-19 08:23:55 51°14.833 2°53.836 76.1 0.3 104 10.2
2008-02-19 08:24:00 51°14.833 2°53.837 76.3 0.4 92 10.2
2008-02-19 08:24:05 51°14.833 2°53.839 76.6 0.9 90 10.2
2008-02-19 08:24:10 51°14.833 2°53.842 77.3 1.3 81 10.2
2008-02-19 08:24:15 51°14.833 2°53.846 78.9 1.7 90 10.3
2008-02-19 08:24:20 51°14.833 2°53.851 80.2 2 87 10.2
2008-02-19 08:24:25 51°14.834 2°53.856 80.9 2.4 85 10.2
2008-02-19 08:24:30 51°14.834 2°53.863 81.1 3.1 85 10.2
2008-02-19 08:24:35 51°14.834 2°53.872 80.1 3.9 86 10.2
2008-02-19 08:24:40 51°14.836 2°53.882 77.2 4.5 78 10.1
2008-02-19 08:24:45 51°14.838 2°53.893 74.5 5 75 10
2008-02-19 08:24:50 51°14.841 2°53.904 70.3 5.5 70 10
2008-02-19 08:24:55 51°14.844 2°53.917 65.1 6 67 10
2008-02-19 08:25:00 51°14.848 2°53.93 63.1 6.5 66 10
2008-02-19 08:25:05 51°14.852 2°53.944 64.5 6.9 67 9.9
2008-02-19 08:25:10 51°14.855 2°53.959 66.7 7.2 70 10
2008-02-19 08:25:15 51°14.859 2°53.974 67.9 7.4 69 10
2008-02-19 08:25:20 51°14.863 2°53.99 66.5 7.6 67 10.1
2008-02-19 08:25:25 51°14.867 2°54.005 64.5 7.6 65 10.1
2008-02-19 08:25:30 51°14.871 2°54.019 63.5 7.2 65 10
2008-02-19 08:25:35 51°14.876 2°54.033 63 6.9 62 10
2008-02-19 08:25:40 51°14.88 2°54.046 62 6.8 63 9.9
2008-02-19 08:25:45 51°14.885 2°54.058 60.8 6.5 59 9.8
2008-02-19 08:25:50 51°14.889 2°54.07 57.6 6.3 57 9.9
2008-02-19 08:25:55 51°14.894 2°54.081 54.5 6.2 54 9.8
2008-02-19 08:26:00 51°14.9 2°54.091 52.2 6.1 51 9.8
2008-02-19 08:26:05 51°14.905 2°54.101 50.3 5.9 49 9.7
2008-02-19 08:26:10 51°14.91 2°54.111 49.1 5.9 50 9.6
2008-02-19 08:26:15 51°14.916 2°54.121 48 5.8 48 9.5
2008-02-19 08:26:20 51°14.921 2°54.13 47.2 5.7 47 9.6
2008-02-19 08:26:25 51°14.926 2°54.139 47 5.7 47 9.5
2008-02-19 08:26:30 51°14.932 2°54.148 46.7 5.6 47 9.4
2008-02-19 08:26:35 51°14.937 2°54.158 46.7 5.6 47 9.4
2008-02-19 08:26:40 51°14.942 2°54.167 46.9 5.6 47 9.4
2008-02-19 08:26:45 51°14.947 2°54.176 47.1 5.6 48 9.4
2008-02-19 08:26:50 51°14.953 2°54.185 47.4 5.6 47 9.4
2008-02-19 08:26:55 51°14.958 2°54.194 47.7 5.6 48 9.4
2008-02-19 08:27:00 51°14.963 2°54.203 47.9 5.5 48 9.3
2008-02-19 08:27:05 51°14.968 2°54.212 48.2 5.4 48 9.2
2008-02-19 08:27:10 51°14.973 2°54.221 48.1 5.4 49 9.2
2008-02-19 08:27:15 51°14.978 2°54.23 48.5 5.4 48 9.3
2008-02-19 08:27:20 51°14.983 2°54.239 48.2 5.3 48 9.2
2008-02-19 08:27:25 51°14.988 2°54.247 48 5.2 48 9.3
2008-02-19 08:27:30 51°14.993 2°54.256 48.2 5 48 9.2
2008-02-19 08:27:35 51°14.997 2°54.264 48.3 4.9 48 9.3
2008-02-19 08:27:40 51°15.002 2°54.272 48.3 4.8 48 9.2
2008-02-19 08:27:45 51°15.006 2°54.279 48.5 4.7 49 9.3
2008-02-19 08:27:50 51°15.01 2°54.287 48.7 4.6 49 9.2
2008-02-19 08:27:55 51°15.014 2°54.294 48.5 4.6 48 9.2
2008-02-19 08:28:00 51°15.019 2°54.302 48.7 4.5 48 9.1
2008-02-19 08:28:05 51°15.023 2°54.309 48.7 4.5 49 9.2
2008-02-19 08:28:10 51°15.027 2°54.317 48.5 4.4 47 9.1
2008-02-19 08:28:15 51°15.031 2°54.324 48.4 4.4 48 9.1
2008-02-19 08:28:20 51°15.036 2°54.331 48.8 4.4 50 9.1
2008-02-19 08:28:25 51°15.039 2°54.338 49.5 4.3 49 9.1
2008-02-19 08:28:30 51°15.043 2°54.345 50 4.2 50 9.1
2008-02-19 08:28:35 51°15.047 2°54.353 50.7 4.2 50 9.2
2008-02-19 08:28:40 51°15.05 2°54.36 51.2 4.1 52 9.2
2008-02-19 08:28:45 51°15.053 2°54.367 51.7 4 53 9.1
2008-02-19 08:28:50 51°15.057 2°54.374 52.2 3.9 52 9.1
2008-02-19 08:28:55 51°15.06 2°54.381 53.3 3.8 55 9.2
2008-02-19 08:29:00 51°15.063 2°54.387 54.3 3.7 54 9.1
2008-02-19 08:29:05 51°15.066 2°54.394 55.1 3.6 54 9.1
2008-02-19 08:29:10 51°15.069 2°54.4 55.6 3.5 55 9.1
2008-02-19 08:29:15 51°15.072 2°54.406 55.8 3.4 54 9.1
2008-02-19 08:29:20 51°15.074 2°54.412 55.9 3.3 55 9
2008-02-19 08:29:24 51°15.076 2°54.417 55.8 3.2 54 9.1
2008-02-19 08:29:30 51°15.079 2°54.423 55.6 3.1 56 9.2
2008-02-19 08:29:34 51°15.081 2°54.428 55.2 3 55 9.1
2008-02-19 08:29:40 51°15.084 2°54.434 54.9 2.9 54 9.2
2008-02-19 08:29:44 51°15.086 2°54.438 54.5 2.8 55 9.2
2008-02-19 08:29:50 51°15.088 2°54.444 54.6 2.7 53 9.2
2008-02-19 08:29:55 51°15.09 2°54.448 54.6 2.6 54 9.1
2008-02-19 08:30:00 51°15.092 2°54.453 54.9 2.4 52 9.1
2008-02-19 08:30:04 51°15.094 2°54.456 55.1 2.4 56 9.1
2008-02-19 08:30:10 51°15.096 2°54.461 55.4 2.3 52 9.1
2008-02-19 08:30:14 51°15.097 2°54.464 55.5 2.2 56 9.1
2008-02-19 08:30:20 51°15.099 2°54.468 56.1 2.1 52 9.1
2008-02-19 08:30:25 51°15.101 2°54.472 56.4 2 56 9.1
2008-02-19 08:30:30 51°15.102 2°54.475 56.7 1.9 54 9.2
2008-02-19 08:30:34 51°15.103 2°54.478 57 1.7 58 9.2
2008-02-19 08:30:40 51°15.105 2°54.481 57.4 1.7 54 9.1
2008-02-19 08:30:44 51°15.106 2°54.484 58 1.6 60 9.2
2008-02-19 08:30:50 51°15.107 2°54.487 58.8 1.5 55 9.1
2008-02-19 08:30:54 51°15.108 2°54.489 59.5 1.3 65 9.2
2008-02-19 08:31:00 51°15.109 2°54.492 60.4 1.2 57 9.2
2008-02-19 08:31:04 51°15.109 2°54.494 60.9 1.1 65 9.2
2008-02-19 08:31:10 51°15.11 2°54.496 61.9 1.1 61 9.1
2008-02-19 08:31:14 51°15.11 2°54.498 62.5 1 65 9.1
2008-02-19 08:31:20 51°15.111 2°54.5 63.1 0.9 64 9.1
2008-02-19 08:31:25 51°15.112 2°54.501 63.8 0.8 54 9.1
2008-02-19 08:31:30 51°15.112 2°54.503 64.1 0.8 67 9.1
2008-02-19 08:31:35 51°15.112 2°54.504 64.5 0.7 64 9.1
2008-02-19 08:31:40 51°15.113 2°54.505 64.6 0.6 69 9.1
2008-02-19 08:31:45 51°15.113 2°54.506 64.8 0.6 67 9.1
2008-02-19 08:31:50 51°15.114 2°54.507 64.6 0.5 56 9.1
2008-02-19 08:31:54 51°15.114 2°54.508 64.5 0.4 49 9.1
2008-02-19 08:32:00 51°15.114 2°54.509 64.3 0.4 67 9.1
2008-02-19 08:32:05 51°15.114 2°54.51 63.8 0.4 52 9.1
2008-02-19 08:32:10 51°15.115 2°54.51 63.1 0.4 59 9.1
2008-02-19 08:32:15 51°15.115 2°54.511 62.8 0.4 67 9.1
2008-02-19 08:32:20 51°15.115 2°54.512 62.3 0.4 59 9.2
2008-02-19 08:32:25 51°15.115 2°54.512 61.6 0.3 62 9.2
2008-02-19 08:32:30 51°15.116 2°54.513 60.9 0.3 40 9.1
2008-02-19 08:32:35 51°15.116 2°54.513 60.4 0.3 60 9.1
2008-02-19 08:32:40 51°15.116 2°54.514 59.8 0.3 51 9.2
2008-02-19 08:32:45 51°15.116 2°54.514 59.2 0.3 70 9.2
2008-02-19 08:32:50 51°15.117 2°54.514 58.7 0.4 19 9.1
2008-02-19 08:32:55 51°15.117 2°54.515 58.2 0.3 84 9.1
2008-02-19 08:33:00 51°15.117 2°54.515 58 0.3 34 9.2
2008-02-19 08:33:05 51°15.117 2°54.515 57.2 0.2 70 9.2
2008-02-19 08:33:10 51°15.117 2°54.515 56.7 0.3 8 9.2
2008-02-19 08:33:15 51°15.117 2°54.516 56.1 0.2 48 9.2
2008-02-19 08:33:20 51°15.118 2°54.516 55.4 0.2 350 9.1
2008-02-19 08:33:26 51°15.118 2°54.516 54.8 0.1 53 9.2
2008-02-19 08:33:30 51°15.118 2°54.516 54.1 0.2 354 9.2
2008-02-19 08:33:35 51°15.118 2°54.516 53.5 0.2 55 9.2
2008-02-19 08:33:40 51°15.119 2°54.516 53 0.2 349 9.2
2008-02-19 08:33:45 51°15.119 2°54.516 52.2 0.1 358 9.1
2008-02-19 08:33:50 51°15.119 2°54.516 51.7 0.1 345 9.2
2008-02-19 08:33:55 51°15.119 2°54.516 51.5 0.1 7 9.2
2008-02-19 08:34:00 51°15.12 2°54.516 50.9 0.2 322 9.2
2008-02-19 08:34:05 51°15.12 2°54.516 50.4 0.1 329 9.2
2008-02-19 08:34:10 51°15.12 2°54.515 49.9 0.1 322 9.2
2008-02-19 08:34:15 51°15.12 2°54.515 49.3 0.2 322 9.2
2008-02-19 08:34:20 51°15.121 2°54.515 48.5 0.1 325 9.2
2008-02-19 08:34:25 51°15.121 2°54.515 48.1 0.1 329 9.2
2008-02-19 08:34:30 51°15.121 2°54.514 47.7 0.3 313 9.1
2008-02-19 08:34:35 51°15.121 2°54.514 47 -999 303 9.2
2008-02-19 08:34:40 51°15.121 2°54.513 46.6 0.4 315 9.2
2008-02-19 08:34:45 51°15.121 2°54.513 46.1 0.2 293 9.2
2008-02-19 08:34:50 51°15.122 2°54.512 45.5 0.3 297 9.2
2008-02-19 08:34:55 51°15.122 2°54.512 45.2 0.2 297 9.2
2008-02-19 08:35:00 51°15.122 2°54.511 44.5 0.3 300 9.2
2008-02-19 08:35:05 51°15.122 2°54.511 44 0.2 313 9.2
2008-02-19 08:35:10 51°15.122 2°54.51 43.5 0.3 300 9.3
2008-02-19 08:35:15 51°15.123 2°54.51 43.3 0.3 295 9.2
2008-02-19 08:35:20 51°15.123 2°54.509 42.9 0.3 301 9.2
2008-02-19 08:35:25 51°15.123 2°54.509 42.5 0.2 307 9.2
2008-02-19 08:35:30 51°15.123 2°54.508 42.4 0.2 285 9.3
2008-02-19 08:35:35 51°15.123 2°54.507 41.8 0.3 285 9.2
2008-02-19 08:35:40 51°15.123 2°54.507 41.6 0.2 284 9.3
2008-02-19 08:35:44 51°15.123 2°54.507 41.4 0.2 285 9.3
2008-02-19 08:35:50 51°15.123 2°54.506 41.2 0.3 283 9.2
2008-02-19 08:35:55 51°15.124 2°54.505 40.9 0.3 299 9.3
2008-02-19 08:36:00 51°15.124 2°54.505 40.5 0.3 293 9.3
2008-02-19 08:36:05 51°15.124 2°54.504 40.2 0.3 293 9.3
2008-02-19 08:36:10 51°15.124 2°54.504 39.8 0.3 306 9.3
2008-02-19 08:36:15 51°15.124 2°54.503 39.1 0.2 305 9.3
2008-02-19 08:36:20 51°15.124 2°54.503 39.1 0.3 301 9.3
2008-02-19 08:36:25 51°15.125 2°54.502 38.9 0.3 300 9.2
2008-02-19 08:36:30 51°15.125 2°54.502 38.7 0.2 320 9.3
2008-02-19 08:36:35 51°15.125 2°54.502 38.5 0.2 330 9.3
2008-02-19 08:36:40 51°15.126 2°54.501 38.2 0.3 321 9.3
2008-02-19 08:36:45 51°15.126 2°54.501 37.8 0.3 332 9.3
2008-02-19 08:36:50 51°15.126 2°54.501 37.8 0.3 338 9.3
2008-02-19 08:36:55 51°15.127 2°54.5 37.5 0.4 336 9.3
2008-02-19 08:36:59 51°15.127 2°54.5 37.5 0.3 2 9.3
2008-02-19 08:37:05 51°15.128 2°54.5 37.4 0.4 341 9.3
2008-02-19 08:37:10 51°15.128 2°54.5 37.4 0.3 7 9.4
2008-02-19 08:37:15 51°15.129 2°54.5 37.7 0.5 351 9.4
2008-02-19 08:37:20 51°15.129 2°54.5 37.9 0.4 4 9.3
2008-02-19 08:37:25 51°15.13 2°54.5 38.5 0.4 3 9.3
2008-02-19 08:37:30 51°15.131 2°54.5 39.1 0.4 10 9.4
2008-02-19 08:37:35 51°15.131 2°54.5 39.8 0.4 10 9.4
2008-02-19 08:37:40 51°15.131 2°54.5 40.3 0.4 19 9.4
2008-02-19 08:37:45 51°15.132 2°54.5 41.2 0.4 16 9.3
2008-02-19 08:37:50 51°15.133 2°54.5 42 0.4 7 9.3
2008-02-19 08:37:55 51°15.133 2°54.501 42.2 0.4 17 9.4
2008-02-19 08:38:00 51°15.134 2°54.501 42.7 0.5 6 9.4
2008-02-19 08:38:05 51°15.134 2°54.501 43.5 0.4 24 9.4
2008-02-19 08:38:10 51°15.135 2°54.501 44.2 0.5 9 9.3
2008-02-19 08:38:15 51°15.135 2°54.502 44.6 0.5 24 9.3
2008-02-19 08:38:20 51°15.136 2°54.502 45.5 0.4 22 9.4
2008-02-19 08:38:25 51°15.136 2°54.502 45.9 0.4 33 9.4
2008-02-19 08:38:30 51°15.137 2°54.503 46.6 0.4 10 9.3
2008-02-19 08:38:35 51°15.137 2°54.503 47.1 0.4 31 9.3
2008-02-19 08:38:40 51°15.138 2°54.503 47.7 0.4 16 9.2
2008-02-19 08:38:45 51°15.138 2°54.504 48.1 0.4 21 9.2
2008-02-19 08:38:50 51°15.139 2°54.504 48.7 0.3 33 9.3
2008-02-19 08:38:55 51°15.139 2°54.504 49.3 0.4 18 9.2
2008-02-19 08:39:00 51°15.14 2°54.505 49.9 0.3 36 9.2
2008-02-19 08:39:05 51°15.14 2°54.505 50.5 0.4 13 9.2
2008-02-19 08:39:10 51°15.141 2°54.505 50.7 0.3 52 9.2
2008-02-19 08:39:15 51°15.141 2°54.505 51.3 0.4 6 9.2
2008-02-19 08:39:20 51°15.141 2°54.506 51.4 0.3 39 9.2
2008-02-19 08:39:25 51°15.142 2°54.506 51.9 0.3 5 9.2
2008-02-19 08:39:30 51°15.142 2°54.506 52.3 0.3 20 9.2
2008-02-19 08:39:35 51°15.143 2°54.506 52.7 0.3 20 9.2
2008-02-19 08:39:40 51°15.143 2°54.507 53.1 0.3 38 9.2
2008-02-19 08:39:45 51°15.143 2°54.506 53.5 0.3 2 9.2
2008-02-19 08:39:50 51°15.144 2°54.507 53.6 0.3 36 9.2
2008-02-19 08:39:55 51°15.144 2°54.507 53.7 0.3 10 9.2
2008-02-19 08:40:00 51°15.144 2°54.507 54.1 0.3 30 9.2
2008-02-19 08:40:05 51°15.145 2°54.507 54.3 0.3 14 9.3
2008-02-19 08:40:10 51°15.145 2°54.507 54.7 0.3 11 9.2
2008-02-19 08:40:15 51°15.146 2°54.507 54.8 0.2 351 9.2
2008-02-19 08:40:20 51°15.146 2°54.507 54.8 0.2 359 9.3
2008-02-19 08:40:25 51°15.146 2°54.507 54.7 0.2 1 9.3
2008-02-19 08:40:30 51°15.146 2°54.507 54.3 0.2 344 9.3
2008-02-19 08:40:35 51°15.146 2°54.507 53.9 0.2 328 9.3
2008-02-19 08:40:40 51°15.147 2°54.507 53.7 0.2 20 9.3
2008-02-19 08:40:45 51°15.147 2°54.508 53.6 0.4 22 9.3
2008-02-19 08:40:50 51°15.148 2°54.51 54.3 0.8 52 9.3
2008-02-19 08:40:55 51°15.15 2°54.512 55 1.5 50 9.4
2008-02-19 08:41:00 51°15.152 2°54.517 55.3 2.3 55 9.4
2008-02-19 08:41:05 51°15.154 2°54.523 55.8 3 53 9.4
2008-02-19 08:41:10 51°15.157 2°54.53 56.1 3.7 56 9.4
2008-02-19 08:41:15 51°15.161 2°54.538 56.1 4.5 56 9.2
2008-02-19 08:41:20 51°15.165 2°54.548 56.2 5.1 57 9.4
2008-02-19 08:41:25 51°15.169 2°54.559 55.9 5.9 57 9.3
2008-02-19 08:41:30 51°15.174 2°54.57 56 6.4 55 9.2
2008-02-19 08:41:35 51°15.18 2°54.583 55.8 6.9 56 9.3
2008-02-19 08:41:40 51°15.186 2°54.597 55.8 7.3 55 9.3
2008-02-19 08:41:45 51°15.192 2°54.611 54.3 8 53 9.3
2008-02-19 08:41:50 51°15.2 2°54.626 52 8.4 52 9.2
2008-02-19 08:41:55 51°15.208 2°54.641 51 8.8 51 9.1
2008-02-19 08:42:00 51°15.216 2°54.657 50.9 9.3 50 9.1
2008-02-19 08:42:05 51°15.225 2°54.673 50 9.7 50 9.2
2008-02-19 08:42:10 51°15.234 2°54.69 49.8 9.9 50 9.1
2008-02-19 08:42:15 51°15.243 2°54.708 49.5 10.3 50 9.1
2008-02-19 08:42:20 51°15.253 2°54.725 48.9 10.5 48 9.2
2008-02-19 08:42:25 51°15.262 2°54.744 50 10.8 52 9.3
2008-02-19 08:42:30 51°15.272 2°54.763 50.6 11.1 50 9.2
2008-02-19 08:42:35 51°15.282 2°54.783 50.5 11.3 51 9.1
2008-02-19 08:42:40 51°15.292 2°54.802 51.1 11.5 51 9.2
2008-02-19 08:42:45 51°15.302 2°54.822 50.9 11.6 51 9.1
2008-02-19 08:42:50 51°15.312 2°54.843 51.6 11.7 53 9.1
2008-02-19 08:42:55 51°15.322 2°54.863 52.1 11.8 52 9
2008-02-19 08:43:00 51°15.332 2°54.884 52.7 11.8 53 9.1
2008-02-19 08:43:05 51°15.342 2°54.905 52.7 11.9 53 9.1
2008-02-19 08:43:10 51°15.352 2°54.926 53.1 12 53 9.1
2008-02-19 08:43:15 51°15.362 2°54.947 53 12 52 9
2008-02-19 08:43:20 51°15.372 2°54.968 52.9 12 53 9
2008-02-19 08:43:25 51°15.382 2°54.99 53.5 12 53 9.1
2008-02-19 08:43:30 51°15.393 2°55.01 52 12 51 9.1
2008-02-19 08:43:35 51°15.404 2°55.031 51 12 50 9.1
2008-02-19 08:43:40 51°15.415 2°55.05 49.7 12 48 9.1
2008-02-19 08:43:45 51°15.426 2°55.07 49.1 12.1 48 9.1
2008-02-19 08:43:50 51°15.437 2°55.09 47.8 12 47 9.1
2008-02-19 08:43:55 51°15.448 2°55.11 47.7 12 49 9.2
2008-02-19 08:44:00 51°15.459 2°55.13 48.8 12 49 9.1
2008-02-19 08:44:05 51°15.47 2°55.151 49.5 12.1 49 9.1
2008-02-19 08:44:10 51°15.481 2°55.171 49.6 12.1 50 9.2
2008-02-19 08:44:15 51°15.492 2°55.192 50.4 12.1 51 9.3
2008-02-19 08:44:20 51°15.502 2°55.213 51.1 12 51 9.1
2008-02-19 08:44:25 51°15.512 2°55.234 51.8 12 52 9.1
2008-02-19 08:44:30 51°15.522 2°55.255 52.2 12.1 51 9.1
2008-02-19 08:44:35 51°15.533 2°55.276 51.9 12.1 52 9.1
2008-02-19 08:44:40 51°15.543 2°55.297 51.7 12.1 51 9.2
2008-02-19 08:44:45 51°15.554 2°55.318 51.6 12.1 52 9.2
2008-02-19 08:44:50 51°15.565 2°55.339 51.6 12.1 51 9.4
2008-02-19 08:44:55 51°15.575 2°55.359 51.4 11.9 52 9.4
2008-02-19 08:45:00 51°15.585 2°55.379 51.7 11.5 52 9.2
2008-02-19 08:45:05 51°15.594 2°55.399 52.2 11.2 52 9.2
2008-02-19 08:45:10 51°15.603 2°55.417 52.2 10.9 52 9.3
2008-02-19 08:45:15 51°15.612 2°55.436 51.9 10.6 52 9.3
2008-02-19 08:45:20 51°15.621 2°55.453 52.1 10.3 52 9.4
2008-02-19 08:45:25 51°15.63 2°55.47 51.6 9.9 51 9.3
2008-02-19 08:45:30 51°15.638 2°55.488 51.3 9.9 51 9.4
2008-02-19 08:45:35 51°15.647 2°55.504 51 9.7 50 9.5
2008-02-19 08:45:40 51°15.655 2°55.52 50.6 9.5 51 9.5
2008-02-19 08:45:45 51°15.663 2°55.536 50.5 9.5 50 9.6
2008-02-19 08:45:50 51°15.672 2°55.552 50.6 9.4 50 9.4
2008-02-19 08:45:55 51°15.68 2°55.568 50.7 9.2 51 9.4
2008-02-19 08:46:00 51°15.688 2°55.583 50.9 8.8 50 9.4
2008-02-19 08:46:05 51°15.695 2°55.597 50.7 8.2 51 9.5
2008-02-19 08:46:10 51°15.702 2°55.61 51 7.9 51 9.5
2008-02-19 08:46:15 51°15.708 2°55.623 51.2 7.3 51 9.5
2008-02-19 08:46:20 51°15.713 2°55.634 51.4 6.8 52 9.5
2008-02-19 08:46:25 51°15.719 2°55.646 52 6.4 52 9.6
2008-02-19 08:46:30 51°15.724 2°55.656 52.9 6.1 53 9.6
2008-02-19 08:46:35 51°15.728 2°55.667 53.6 5.8 54 9.6
2008-02-19 08:46:40 51°15.732 2°55.676 55 5.5 56 9.7
2008-02-19 08:46:45 51°15.737 2°55.686 55.9 5.1 56 9.6
2008-02-19 08:46:50 51°15.74 2°55.695 57 4.9 57 9.6
2008-02-19 08:46:55 51°15.743 2°55.703 58.4 4.5 58 9.6
2008-02-19 08:47:00 51°15.746 2°55.711 60.3 4.2 61 9.6
2008-02-19 08:47:05 51°15.749 2°55.719 62.5 3.9 63 9.6
2008-02-19 08:47:10 51°15.751 2°55.726 65.2 3.7 66 9.7
2008-02-19 08:47:15 51°15.752 2°55.733 68 3.3 69 9.8
2008-02-19 08:47:20 51°15.753 2°55.738 71 2.8 73 9.6
2008-02-19 08:47:25 51°15.754 2°55.743 75.1 2.3 76 9.6
2008-02-19 08:47:30 51°15.754 2°55.748 78.9 2.1 83 9.7
2008-02-19 08:47:35 51°15.755 2°55.752 81.9 1.9 83 9.6
2008-02-19 08:47:40 51°15.755 2°55.756 84.8 1.9 91 9.6
2008-02-19 08:47:45 51°15.755 2°55.76 86.4 2 88 9.6
2008-02-19 08:47:50 51°15.755 2°55.765 87.7 2 86 9.6
2008-02-19 08:47:55 51°15.755 2°55.77 88.1 2.1 91 9.6
2008-02-19 08:48:00 51°15.755 2°55.775 87.2 2.3 86 9.6
2008-02-19 08:48:05 51°15.756 2°55.78 85 2.5 85 9.6
2008-02-19 08:48:10 51°15.756 2°55.786 80.5 2.7 80 9.6
2008-02-19 08:48:15 51°15.757 2°55.792 74.5 2.7 70 9.6
2008-02-19 08:48:20 51°15.759 2°55.797 69 2.7 72 9.6
2008-02-19 08:48:25 51°15.76 2°55.802 63.9 2.6 61 9.6
2008-02-19 08:48:30 51°15.762 2°55.807 58.6 2.6 61 9.6
2008-02-19 08:48:35 51°15.765 2°55.812 53.7 2.6 51 9.6
2008-02-19 08:48:40 51°15.767 2°55.816 48.8 2.6 48 9.6
2008-02-19 08:48:45 51°15.77 2°55.819 43.9 2.6 38 9.6
2008-02-19 08:48:50 51°15.772 2°55.823 38.8 2.5 39 9.6
2008-02-19 08:48:55 51°15.776 2°55.825 34 2.4 28 9.6
2008-02-19 08:49:00 51°15.778 2°55.827 29 2.4 26 9.6
2008-02-19 08:49:05 51°15.781 2°55.829 24.6 2.4 20 9.7
2008-02-19 08:49:10 51°15.785 2°55.831 20.2 2.5 18 9.7
2008-02-19 08:49:15 51°15.788 2°55.833 16.6 2.6 15 9.7
2008-02-19 08:49:20 51°15.792 2°55.834 14.2 2.6 11 9.7
2008-02-19 08:49:25 51°15.795 2°55.835 12.8 2.7 12 9.7
2008-02-19 08:49:30 51°15.799 2°55.836 11.5 2.6 9 9.7
2008-02-19 08:49:35 51°15.802 2°55.837 10.7 2.4 11 9.7
2008-02-19 08:49:40 51°15.804 2°55.837 10.2 1.9 1 9.7
2008-02-19 08:49:45 51°15.806 2°55.838 11.9 1.3 17 9.7
2008-02-19 08:49:50 51°15.807 2°55.837 13.7 0.9 353 9.8
2008-02-19 08:49:55 51°15.808 2°55.837 15.5 0.4 -999 9.8
2008-02-19 08:50:00 51°15.808 2°55.836 16.8 0.4 298 9.8
2008-02-19 08:50:05 51°15.808 2°55.836 17.9 0.1 274 9.8
2008-02-19 08:50:10 51°15.808 2°55.835 18.1 0.4 291 9.8
2008-02-19 08:50:15 51°15.808 2°55.835 17.7 0.1 299 9.9
2008-02-19 08:50:20 51°15.808 2°55.835 17 0.3 286 9.8
2008-02-19 08:50:25 51°15.808 2°55.834 16 0.2 294 9.8
2008-02-19 08:50:30 51°15.809 2°55.833 15 0.3 291 9.8
2008-02-19 08:50:35 51°15.809 2°55.833 13.7 0.2 287 9.8
2008-02-19 08:50:40 51°15.809 2°55.832 12.5 0.2 293 9.8
2008-02-19 08:50:45 51°15.809 2°55.832 11.3 0.2 284 9.8
2008-02-19 08:50:50 51°15.809 2°55.831 9.8 0.2 292 9.8
2008-02-19 08:50:55 51°15.809 2°55.831 8.6 0.2 293 9.8
2008-02-19 08:51:00 51°15.809 2°55.83 7 0.3 279 9.8
2008-02-19 08:51:05 51°15.809 2°55.83 5.4 0.2 286 9.8
2008-02-19 08:51:10 51°15.809 2°55.829 3.8 0.3 296 9.8
2008-02-19 08:51:15 51°15.809 2°55.829 2.5 0.2 291 9.8
2008-02-19 08:51:20 51°15.809 2°55.828 1.3 0.3 281 9.9
2008-02-19 08:51:25 51°15.81 2°55.828 359.4 0.3 279 9.8
2008-02-19 08:51:30 51°15.81 2°55.827 357.7 0.3 287 9.8
2008-02-19 08:51:35 51°15.81 2°55.827 356 0.3 289 9.8
2008-02-19 08:51:40 51°15.81 2°55.826 354.4 0.3 284 9.9
2008-02-19 08:51:46 51°15.81 2°55.825 352.8 0.3 276 9.8
2008-02-19 08:51:50 51°15.81 2°55.825 351.2 0.3 298 9.8
2008-02-19 08:51:55 51°15.81 2°55.824 349.7 0.3 279 9.9
2008-02-19 08:52:00 51°15.81 2°55.823 348.3 0.3 280 9.9
2008-02-19 08:52:05 51°15.81 2°55.823 346.8 0.3 271 9.8
2008-02-19 08:52:10 51°15.81 2°55.822 345.4 0.3 281 9.8
2008-02-19 08:52:15 51°15.811 2°55.821 344 0.3 280 9.8
2008-02-19 08:52:20 51°15.811 2°55.82 342.7 0.3 280 9.8
2008-02-19 08:52:25 51°15.811 2°55.82 341.3 0.4 284 9.8
2008-02-19 08:52:30 51°15.811 2°55.819 340.3 0.3 285 9.9
2008-02-19 08:52:35 51°15.811 2°55.818 339.1 0.4 272 9.8
2008-02-19 08:52:40 51°15.811 2°55.818 338.1 0.4 292 9.8
2008-02-19 08:52:45 51°15.811 2°55.817 337.2 0.4 277 9.9
2008-02-19 08:52:50 51°15.811 2°55.816 336.6 0.3 285 9.8
2008-02-19 08:52:55 51°15.811 2°55.815 336 0.4 276 9.8
2008-02-19 08:53:00 51°15.811 2°55.814 335.4 0.3 278 9.9
2008-02-19 08:53:05 51°15.811 2°55.813 334.6 0.4 272 9.9
2008-02-19 08:53:10 51°15.811 2°55.812 334.4 0.3 270 9.9
2008-02-19 08:53:15 51°15.811 2°55.811 334 0.4 265 10
2008-02-19 08:53:20 51°15.811 2°55.811 333.8 0.3 274 9.9
2008-02-19 08:53:25 51°15.811 2°55.81 333.5 0.4 272 9.9
2008-02-19 08:53:30 51°15.811 2°55.809 333.2 0.4 277 9.9
2008-02-19 08:53:35 51°15.811 2°55.808 333.1 0.4 276 9.9
2008-02-19 08:53:40 51°15.811 2°55.807 333.1 0.4 280 9.9
2008-02-19 08:53:45 51°15.811 2°55.806 333.1 0.4 280 9.9
2008-02-19 08:53:50 51°15.811 2°55.805 333 0.4 280 9.9
2008-02-19 08:53:55 51°15.812 2°55.804 333 0.4 294 9.9
2008-02-19 08:54:00 51°15.812 2°55.803 333.2 0.4 280 9.9
2008-02-19 08:54:05 51°15.812 2°55.803 333.4 0.4 289 9.9
2008-02-19 08:54:10 51°15.812 2°55.802 333.7 0.4 281 9.9
2008-02-19 08:54:15 51°15.812 2°55.801 334.2 0.4 285 9.9
2008-02-19 08:54:20 51°15.812 2°55.8 334.4 0.4 279 9.9
2008-02-19 08:54:25 51°15.812 2°55.799 334.8 0.4 285 9.9
2008-02-19 08:54:30 51°15.813 2°55.798 335.3 0.4 292 10
2008-02-19 08:54:35 51°15.813 2°55.797 335.5 0.5 287 9.9
2008-02-19 08:54:40 51°15.813 2°55.796 336 0.5 295 9.9
2008-02-19 08:54:45 51°15.813 2°55.795 336.2 0.5 286 9.9
2008-02-19 08:54:50 51°15.813 2°55.794 336.7 0.4 296 9.9
2008-02-19 08:54:55 51°15.814 2°55.794 336.9 0.5 294 9.9
2008-02-19 08:55:00 51°15.814 2°55.793 337.4 0.4 288 9.9
2008-02-19 08:55:05 51°15.814 2°55.792 337.9 0.4 296 9.9
2008-02-19 08:55:10 51°15.814 2°55.791 338.4 0.4 303 9.9
2008-02-19 08:55:15 51°15.815 2°55.79 338.9 0.4 307 10
2008-02-19 08:55:20 51°15.815 2°55.789 339.5 0.4 301 9.9
2008-02-19 08:55:25 51°15.815 2°55.789 340 0.4 316 9.9
2008-02-19 08:55:30 51°15.816 2°55.788 340.6 0.4 302 9.9
2008-02-19 08:55:35 51°15.816 2°55.787 341.3 0.4 304 10
2008-02-19 08:55:40 51°15.816 2°55.786 341.9 0.4 305 10
2008-02-19 08:55:45 51°15.816 2°55.785 342.5 0.4 302 9.9
2008-02-19 08:55:50 51°15.817 2°55.785 343.3 0.5 309 10
2008-02-19 08:55:55 51°15.817 2°55.784 343.9 0.4 311 10
2008-02-19 08:56:00 51°15.818 2°55.783 344.7 0.4 315 10
2008-02-19 08:56:05 51°15.818 2°55.783 345.6 0.4 320 10
2008-02-19 08:56:10 51°15.819 2°55.782 346.1 0.4 310 9.9
2008-02-19 08:56:15 51°15.819 2°55.781 346.9 0.4 317 10
2008-02-19 08:56:20 51°15.82 2°55.781 347.6 0.5 315 10
2008-02-19 08:56:25 51°15.82 2°55.78 348.4 0.5 320 10
2008-02-19 08:56:30 51°15.82 2°55.78 349.3 0.4 320 10
2008-02-19 08:56:35 51°15.821 2°55.779 349.9 0.5 322 10
2008-02-19 08:56:40 51°15.822 2°55.778 350.7 0.5 325 10
2008-02-19 08:56:45 51°15.822 2°55.778 351.4 0.4 328 10
2008-02-19 08:56:50 51°15.823 2°55.778 352.3 0.4 318 10
2008-02-19 08:56:55 51°15.823 2°55.777 353.1 0.4 329 10.1
2008-02-19 08:57:00 51°15.824 2°55.776 353.9 0.5 332 10
2008-02-19 08:57:05 51°15.824 2°55.776 354.8 0.4 327 10
2008-02-19 08:57:10 51°15.825 2°55.775 355.6 0.5 323 10
2008-02-19 08:57:15 51°15.826 2°55.775 356.4 0.5 341 10
2008-02-19 08:57:20 51°15.826 2°55.775 357.4 0.4 328 10
2008-02-19 08:57:25 51°15.827 2°55.775 358 0.5 336 10
2008-02-19 08:57:30 51°15.827 2°55.774 358.7 0.4 343 10.1
2008-02-19 08:57:35 51°15.828 2°55.774 359.7 0.4 335 10.1
2008-02-19 08:57:40 51°15.828 2°55.773 0.3 0.5 332 10.1
2008-02-19 08:57:45 51°15.829 2°55.773 1.1 0.4 351 10
2008-02-19 08:57:50 51°15.829 2°55.772 1.9 0.4 340 10.1
2008-02-19 08:57:55 51°15.83 2°55.772 2.6 0.4 342 10.1
2008-02-19 08:58:00 51°15.83 2°55.771 3.2 0.4 347 10.1
2008-02-19 08:58:05 51°15.831 2°55.771 4.2 0.4 353 10.1
2008-02-19 08:58:10 51°15.831 2°55.771 4.7 0.4 348 10.1
2008-02-19 08:58:15 51°15.832 2°55.771 5.4 0.4 347 10.1
2008-02-19 08:58:20 51°15.833 2°55.771 6.3 0.4 353 10.1
2008-02-19 08:58:25 51°15.834 2°55.771 7.1 0.4 349 10.1
2008-02-19 08:58:30 51°15.834 2°55.771 8 0.4 -999 10.1
2008-02-19 08:58:35 51°15.835 2°55.771 8.8 0.5 353 10.1
2008-02-19 08:58:40 51°15.835 2°55.771 9.7 0.4 8 10.2
2008-02-19 08:58:45 51°15.836 2°55.77 10.5 0.4 338 10.1
2008-02-19 08:58:50 51°15.837 2°55.77 11.1 0.4 359 10.1
2008-02-19 08:58:55 51°15.837 2°55.77 12 0.4 350 10.1
2008-02-19 08:59:00 51°15.838 2°55.771 13 0.5 357 10.1
2008-02-19 08:59:05 51°15.839 2°55.771 13.5 0.5 352 10.2
2008-02-19 08:59:10 51°15.839 2°55.771 14.4 0.4 2 10.2
2008-02-19 08:59:15 51°15.84 2°55.77 14.9 0.5 346 10.2
2008-02-19 08:59:20 51°15.84 2°55.77 15.3 0.4 4 10.2
2008-02-19 08:59:25 51°15.841 2°55.77 15.9 0.4 348 10.2
2008-02-19 08:59:30 51°15.842 2°55.77 16.1 0.5 359 10.2
2008-02-19 08:59:35 51°15.842 2°55.77 16.7 0.5 356 10.2
2008-02-19 08:59:40 51°15.843 2°55.77 17.1 0.5 354 10.2
2008-02-19 08:59:45 51°15.844 2°55.77 17.3 0.5 351 10.2
2008-02-19 08:59:50 51°15.844 2°55.77 17.5 0.4 3 10.3
2008-02-19 08:59:55 51°15.845 2°55.77 17.9 0.5 350 10.2
2008-02-19 09:00:00 51°15.846 2°55.77 18.2 0.5 1 10.2
2008-02-19 09:00:05 51°15.846 2°55.77 18.8 0.6 1 10.2
2008-02-19 09:00:10 51°15.847 2°55.77 19.5 0.6 18 10.2
2008-02-19 09:00:15 51°15.848 2°55.771 20.2 0.6 3 10.3
2008-02-19 09:00:20 51°15.849 2°55.771 21.3 0.8 17 10.3
2008-02-19 09:00:25 51°15.851 2°55.772 23.1 1 19 10.3
2008-02-19 09:00:30 51°15.852 2°55.773 25.3 1.1 24 10.3
2008-02-19 09:00:35 51°15.854 2°55.774 28 1.2 27 10.3
2008-02-19 09:00:40 51°15.855 2°55.776 30.7 1.3 28 10.3
2008-02-19 09:00:45 51°15.857 2°55.778 34 1.4 34 10.3
2008-02-19 09:00:50 51°15.859 2°55.78 37.6 1.6 41 10.3
2008-02-19 09:00:55 51°15.861 2°55.782 40.9 1.6 41 10.3
2008-02-19 09:01:00 51°15.862 2°55.785 44.1 1.8 46 10.3
2008-02-19 09:01:05 51°15.864 2°55.788 47.9 1.9 48 10.3
2008-02-19 09:01:10 51°15.866 2°55.792 51.7 2 54 10.3
2008-02-19 09:01:15 51°15.867 2°55.796 56 2.1 58 10.3
2008-02-19 09:01:20 51°15.868 2°55.801 60.4 2.2 65 10.3
2008-02-19 09:01:25 51°15.87 2°55.806 65.3 2.4 68 10.3
2008-02-19 09:01:30 51°15.871 2°55.811 70.2 2.5 73 10.3
2008-02-19 09:01:35 51°15.871 2°55.817 75.4 2.6 77 10.3
2008-02-19 09:01:40 51°15.872 2°55.823 80.7 2.7 81 10.2
2008-02-19 09:01:45 51°15.872 2°55.829 85.9 2.8 86 10.2
2008-02-19 09:01:50 51°15.872 2°55.835 90.3 2.9 92 10.3
2008-02-19 09:01:55 51°15.872 2°55.842 92.8 3.1 92 10.3
2008-02-19 09:02:00 51°15.871 2°55.849 93.9 3.2 94 10.2
2008-02-19 09:02:05 51°15.871 2°55.856 95 3.3 91 10.2
2008-02-19 09:02:10 51°15.871 2°55.864 94.9 3.5 95 10.2
2008-02-19 09:02:15 51°15.871 2°55.872 94.5 3.6 92 10.2
2008-02-19 09:02:20 51°15.87 2°55.88 94 3.7 93 10.1
2008-02-19 09:02:25 51°15.87 2°55.888 93.4 3.8 91 10.2
2008-02-19 09:02:30 51°15.87 2°55.897 92.2 3.9 92 10.1
2008-02-19 09:02:35 51°15.87 2°55.906 91.8 3.9 89 10.1
2008-02-19 09:02:40 51°15.87 2°55.915 90.4 4.1 89 10.1
2008-02-19 09:02:46 51°15.871 2°55.926 88.7 4.1 86 10.2
2008-02-19 09:02:50 51°15.871 2°55.933 86.6 4.1 87 10.2
2008-02-19 09:02:55 51°15.872 2°55.942 83.5 4.1 80 10.2
2008-02-19 09:03:00 51°15.873 2°55.951 79.5 4.1 80 10.2
2008-02-19 09:03:05 51°15.875 2°55.959 75.3 4 74 10.1
2008-02-19 09:03:10 51°15.877 2°55.968 72 3.9 72 10.1
2008-02-19 09:03:15 51°15.879 2°55.976 69.6 3.8 71 10.1
2008-02-19 09:03:20 51°15.881 2°55.983 67.8 3.7 66 10.1
2008-02-19 09:03:25 51°15.882 2°55.99 67.2 3.6 71 10.2
2008-02-19 09:03:30 51°15.884 2°55.997 66.6 3.5 66 10.1
2008-02-19 09:03:35 51°15.886 2°56.004 65.9 3.3 67 10.1
2008-02-19 09:03:40 51°15.888 2°56.01 65.7 3.2 67 10.2
2008-02-19 09:03:45 51°15.889 2°56.017 65 3.1 67 10.2
2008-02-19 09:03:50 51°15.891 2°56.022 64.5 2.9 65 10.1
2008-02-19 09:03:55 51°15.893 2°56.028 63.8 2.7 64 10.1
2008-02-19 09:04:00 51°15.894 2°56.033 63 2.5 63 10
2008-02-19 09:04:05 51°15.895 2°56.037 62.3 2.3 66 10.1
2008-02-19 09:04:10 51°15.897 2°56.042 62.5 2.1 68 10.1
2008-02-19 09:04:15 51°15.898 2°56.045 63 1.9 66 10
2008-02-19 09:04:20 51°15.899 2°56.049 64.6 1.7 67 10
2008-02-19 09:04:25 51°15.9 2°56.052 66.5 1.6 67 10.1
2008-02-19 09:04:30 51°15.9 2°56.055 68.3 1.5 67 10
2008-02-19 09:04:35 51°15.901 2°56.058 70.1 1.3 68 10.1
2008-02-19 09:04:40 51°15.901 2°56.061 71.6 1.2 75 10.1
2008-02-19 09:04:45 51°15.902 2°56.063 73.2 1.1 66 10.1
2008-02-19 09:04:50 51°15.902 2°56.065 74.9 1 78 10.1
2008-02-19 09:04:55 51°15.903 2°56.067 76.8 1 69 10.1
2008-02-19 09:05:00 51°15.903 2°56.069 78.5 1 77 10.1
2008-02-19 09:05:05 51°15.903 2°56.071 79.9 0.9 71 10.2
2008-02-19 09:05:10 51°15.904 2°56.073 81 0.9 79 10.1
2008-02-19 09:05:15 51°15.904 2°56.075 82.5 0.9 74 10.1
2008-02-19 09:05:20 51°15.904 2°56.077 83.7 0.9 80 10.1
2008-02-19 09:05:25 51°15.904 2°56.079 84.7 0.8 81 10.1
2008-02-19 09:05:30 51°15.905 2°56.081 85.7 0.9 85 10.1
2008-02-19 09:05:35 51°15.905 2°56.082 87 0.8 81 10.2
2008-02-19 09:05:40 51°15.905 2°56.084 87.9 0.8 94 10.2
2008-02-19 09:05:45 51°15.905 2°56.086 89 0.8 85 10.1
2008-02-19 09:05:50 51°15.905 2°56.088 90 0.7 99 10.1
2008-02-19 09:05:55 51°15.905 2°56.089 91.4 0.8 82 10.1
2008-02-19 09:06:00 51°15.905 2°56.091 92.2 0.7 91 10.2
2008-02-19 09:06:05 51°15.905 2°56.093 93.5 0.8 92 10.2
2008-02-19 09:06:10 51°15.905 2°56.094 94.3 0.7 91 10.1
2008-02-19 09:06:15 51°15.905 2°56.096 95.5 0.7 96 10.1
2008-02-19 09:06:20 51°15.905 2°56.097 96.4 0.7 94 10.2
2008-02-19 09:06:25 51°15.905 2°56.099 97.1 0.7 98 10.2
2008-02-19 09:06:30 51°15.905 2°56.1 97.9 0.7 93 10.2
2008-02-19 09:06:35 51°15.904 2°56.102 98.5 0.7 106 10.2
2008-02-19 09:06:40 51°15.904 2°56.103 99.3 0.7 95 10.2
2008-02-19 09:06:45 51°15.904 2°56.105 100.1 0.7 99 10.2
2008-02-19 09:06:50 51°15.903 2°56.106 100.8 0.7 112 10.2
2008-02-19 09:06:55 51°15.903 2°56.108 101.4 0.6 103 10.2
2008-02-19 09:07:00 51°15.903 2°56.109 101.9 0.7 105 10.2
2008-02-19 09:07:05 51°15.903 2°56.11 102.4 0.6 108 10.2
2008-02-19 09:07:10 51°15.903 2°56.112 102.8 0.6 105 10.2
2008-02-19 09:07:15 51°15.903 2°56.113 103.1 0.6 105 10.2
2008-02-19 09:07:20 51°15.902 2°56.115 103 0.7 108 10.2
2008-02-19 09:07:25 51°15.902 2°56.116 103.1 0.7 82 10.3
2008-02-19 09:07:30 51°15.902 2°56.117 103 0.7 111 10.3
2008-02-19 09:07:35 51°15.902 2°56.119 103 0.6 84 10.3
2008-02-19 09:07:40 51°15.902 2°56.12 102.8 0.6 117 10.3
2008-02-19 09:07:45 51°15.902 2°56.121 102.3 0.6 97 10.2
2008-02-19 09:07:50 51°15.901 2°56.123 102.4 0.6 106 10.1
2008-02-19 09:07:55 51°15.901 2°56.124 102.2 0.6 92 10.2
2008-02-19 09:08:00 51°15.901 2°56.125 101.9 0.6 102 10.1
2008-02-19 09:08:05 51°15.901 2°56.127 101.8 0.6 96 10.2
2008-02-19 09:08:10 51°15.901 2°56.128 101.2 0.6 114 10.1
2008-02-19 09:08:15 51°15.901 2°56.129 101.1 0.6 97 10
2008-02-19 09:08:20 51°15.9 2°56.13 100.8 0.6 103 10.1
2008-02-19 09:08:25 51°15.9 2°56.131 100.4 0.5 94 10.1
2008-02-19 09:08:30 51°15.9 2°56.133 100.3 0.6 112 10.1
2008-02-19 09:08:35 51°15.9 2°56.134 100.1 0.5 96 10.1
2008-02-19 09:08:40 51°15.9 2°56.135 100 0.6 98 10.1
2008-02-19 09:08:45 51°15.9 2°56.136 99.5 0.6 103 10.1
2008-02-19 09:08:50 51°15.9 2°56.137 99.3 0.6 106 10.1
2008-02-19 09:08:55 51°15.9 2°56.139 99.1 0.6 91 10.1
2008-02-19 09:09:00 51°15.899 2°56.14 98.8 0.6 114 10.2
2008-02-19 09:09:05 51°15.899 2°56.141 98.4 0.5 99 10.2
2008-02-19 09:09:10 51°15.899 2°56.142 98.1 0.6 109 10.2
2008-02-19 09:09:15 51°15.899 2°56.143 98.1 0.6 91 10.1
2008-02-19 09:09:20 51°15.899 2°56.144 97.9 0.5 99 10.1
2008-02-19 09:09:25 51°15.899 2°56.145 97.3 0.5 103 10.2
2008-02-19 09:09:30 51°15.898 2°56.147 97 0.5 107 10.2
2008-02-19 09:09:35 51°15.898 2°56.148 96.5 0.5 95 10.2
2008-02-19 09:09:40 51°15.898 2°56.149 96.4 0.5 104 10.2
2008-02-19 09:09:46 51°15.898 2°56.15 96.2 0.5 96 10.2
2008-02-19 09:09:50 51°15.898 2°56.151 95.8 0.5 108 10.2
2008-02-19 09:09:55 51°15.898 2°56.152 95.8 0.5 88 10.1
2008-02-19 09:10:00 51°15.897 2°56.153 95.8 0.5 112 10.2
2008-02-19 09:10:05 51°15.897 2°56.154 95.7 0.5 102 10.1
2008-02-19 09:10:10 51°15.897 2°56.155 95.7 0.5 102 10.2
2008-02-19 09:10:15 51°15.897 2°56.156 95.8 0.5 107 10.2
2008-02-19 09:10:20 51°15.897 2°56.157 95.8 0.5 117 10.2
2008-02-19 09:10:25 51°15.897 2°56.158 95.9 0.5 107 10.1
2008-02-19 09:10:30 51°15.897 2°56.159 96 0.5 111 10.1
2008-02-19 09:10:35 51°15.896 2°56.16 96 0.5 100 10.1
2008-02-19 09:10:40 51°15.896 2°56.161 96 0.5 116 10.1
2008-02-19 09:10:45 51°15.896 2°56.162 96.1 0.5 118 10.2
2008-02-19 09:10:50 51°15.896 2°56.163 96.3 0.4 101 10.1
2008-02-19 09:10:55 51°15.895 2°56.164 96.6 0.5 121 10.2
2008-02-19 09:11:00 51°15.895 2°56.165 96.6 0.4 114 10.1
2008-02-19 09:11:05 51°15.895 2°56.166 97 0.5 91 10.1
2008-02-19 09:11:10 51°15.895 2°56.167 97.3 0.5 125 10.1
2008-02-19 09:11:15 51°15.895 2°56.168 97.3 0.4 111 10.2
2008-02-19 09:11:20 51°15.894 2°56.168 97.7 0.4 104 10.1
2008-02-19 09:11:25 51°15.894 2°56.169 98.1 0.4 105 10.1
2008-02-19 09:11:30 51°15.894 2°56.17 98.3 0.4 114 10.2
2008-02-19 09:11:35 51°15.894 2°56.171 98.6 0.4 105 10.2
2008-02-19 09:11:40 51°15.894 2°56.172 98.7 0.4 110 10.2
2008-02-19 09:11:45 51°15.894 2°56.173 98.9 0.4 106 10.1
2008-02-19 09:11:50 51°15.893 2°56.173 99.3 0.4 113 10.1
2008-02-19 09:11:55 51°15.893 2°56.174 99.5 0.4 107 10.1
2008-02-19 09:12:00 51°15.893 2°56.175 99.6 0.4 115 10.1
2008-02-19 09:12:06 51°15.893 2°56.176 100.1 0.4 89 10.1
2008-02-19 09:12:10 51°15.892 2°56.177 100.1 0.4 132 10.1
2008-02-19 09:12:15 51°15.892 2°56.178 100.5 0.4 92 10.1
2008-02-19 09:12:20 51°15.892 2°56.178 100.8 0.4 116 10.2
2008-02-19 09:12:25 51°15.892 2°56.179 100.8 0.4 120 10.1
2008-02-19 09:12:30 51°15.892 2°56.18 101.1 0.4 111 10.1
2008-02-19 09:12:35 51°15.892 2°56.181 101.7 0.4 98 10.2
2008-02-19 09:12:40 51°15.891 2°56.182 101.7 0.4 102 10.1
2008-02-19 09:12:45 51°15.891 2°56.183 102.2 0.4 98 10.2
2008-02-19 09:12:50 51°15.891 2°56.183 102.2 0.4 122 10.1
2008-02-19 09:12:55 51°15.891 2°56.184 102.6 0.4 80 10.1
2008-02-19 09:13:00 51°15.891 2°56.185 102.8 0.4 105 10.2
2008-02-19 09:13:05 51°15.891 2°56.186 102.7 0.4 108 10.2
2008-02-19 09:13:10 51°15.891 2°56.187 103.2 0.4 99 10.2
2008-02-19 09:13:15 51°15.891 2°56.188 103.4 0.4 103 10.1
2008-02-19 09:13:20 51°15.891 2°56.189 103.7 0.4 97 10.1
2008-02-19 09:13:25 51°15.891 2°56.19 104.2 0.4 99 10.1
2008-02-19 09:13:30 51°15.89 2°56.19 104.6 0.4 100 10.2
2008-02-19 09:13:35 51°15.89 2°56.191 104.8 0.3 115 10.2
2008-02-19 09:13:40 51°15.89 2°56.192 105.1 0.4 94 10.2
2008-02-19 09:13:46 51°15.89 2°56.193 105.8 0.3 110 10.2
2008-02-19 09:13:50 51°15.889 2°56.193 106.1 0.3 113 10.2
2008-02-19 09:13:55 51°15.889 2°56.194 106.6 0.4 102 10.1
2008-02-19 09:14:00 51°15.889 2°56.195 107.3 0.3 101 10.2
2008-02-19 09:14:05 51°15.889 2°56.195 107.9 0.3 121 10.1
2008-02-19 09:14:10 51°15.889 2°56.196 108.4 0.4 99 10.1
2008-02-19 09:14:15 51°15.888 2°56.197 109.1 0.4 105 10.1
2008-02-19 09:14:20 51°15.888 2°56.197 109.5 0.4 116 10.1
2008-02-19 09:14:26 51°15.888 2°56.198 110 0.4 100 10.1
2008-02-19 09:14:30 51°15.888 2°56.199 110.2 0.3 109 10.1
2008-02-19 09:14:35 51°15.888 2°56.2 111 0.4 104 10.1
2008-02-19 09:14:40 51°15.888 2°56.2 111.4 0.4 105 10.2